createdAt,value
2017-02-24T00:00:59.802Z,225.00
2017-02-24T00:02:00.338Z,225.00
2017-02-24T00:03:00.876Z,225.00
2017-02-24T00:04:01.411Z,225.00
2017-02-24T00:05:01.945Z,225.00
2017-02-24T00:06:02.472Z,202.50
2017-02-24T00:07:03.008Z,180.00
2017-02-24T00:08:03.537Z,225.00
2017-02-24T00:09:04.229Z,247.50
2017-02-24T00:10:04.616Z,202.50
2017-02-24T00:11:05.154Z,225.00
2017-02-24T00:12:05.684Z,247.50
2017-02-24T00:13:06.217Z,225.00
2017-02-24T00:14:06.751Z,180.00
2017-02-24T00:15:07.290Z,202.50
2017-02-24T00:16:07.812Z,180.00
2017-02-24T00:17:08.351Z,225.00
2017-02-24T00:18:08.880Z,247.50
2017-02-24T00:19:09.571Z,247.50
2017-02-24T00:20:09.951Z,247.50
2017-02-24T00:21:10.474Z,225.00
2017-02-24T00:22:11.007Z,180.00
2017-02-24T00:23:11.546Z,202.50
2017-02-24T00:24:12.071Z,225.00
2017-02-24T00:25:12.599Z,202.50
2017-02-24T00:26:13.130Z,202.50
2017-02-24T00:27:13.654Z,202.50
2017-02-24T00:28:14.196Z,202.50
2017-02-24T00:29:14.733Z,202.50
2017-02-24T00:30:15.259Z,225.00
2017-02-24T00:31:15.784Z,247.50
2017-02-24T00:32:16.316Z,247.50
2017-02-24T00:33:16.852Z,202.50
2017-02-24T00:34:17.384Z,202.50
2017-02-24T00:35:17.912Z,202.50
2017-02-24T00:36:18.447Z,202.50
2017-02-24T00:37:18.993Z,225.00
2017-02-24T00:38:19.510Z,225.00
2017-02-24T00:39:20.192Z,225.00
2017-02-24T00:40:20.573Z,225.00
2017-02-24T00:41:21.101Z,225.00
2017-02-24T00:42:21.640Z,225.00
2017-02-24T00:43:22.171Z,225.00
2017-02-24T00:44:22.702Z,202.50
2017-02-24T00:45:23.382Z,225.00
2017-02-24T00:46:23.764Z,225.00
2017-02-24T00:47:24.449Z,270.00
2017-02-24T00:48:24.828Z,247.50
2017-02-24T00:49:25.362Z,202.50
2017-02-24T00:50:25.898Z,202.50
2017-02-24T00:51:26.439Z,202.50
2017-02-24T00:52:26.976Z,225.00
2017-02-24T00:53:27.509Z,225.00
2017-02-24T00:54:28.045Z,247.50
2017-02-24T00:55:28.739Z,247.50
2017-02-24T00:56:29.109Z,247.50
2017-02-24T00:57:29.790Z,247.50
2017-02-24T00:58:30.179Z,202.50
2017-02-24T00:59:30.860Z,225.00
2017-02-24T01:00:31.242Z,202.50
2017-02-24T01:01:31.778Z,247.50
2017-02-24T01:02:32.305Z,247.50
2017-02-24T01:03:32.836Z,247.50
2017-02-24T01:04:33.370Z,247.50
2017-02-24T01:05:33.899Z,247.50
2017-02-24T01:06:34.432Z,247.50
2017-02-24T01:07:34.964Z,225.00
2017-02-24T01:08:35.500Z,225.00
2017-02-24T01:09:36.031Z,225.00
2017-02-24T01:10:36.564Z,225.00
2017-02-24T01:11:37.100Z,225.00
2017-02-24T01:12:37.627Z,225.00
2017-02-24T01:13:38.160Z,247.50
2017-02-24T01:14:38.691Z,202.50
2017-02-24T01:15:39.226Z,225.00
2017-02-24T01:16:39.756Z,225.00
2017-02-24T01:17:40.287Z,225.00
2017-02-24T01:18:40.821Z,225.00
2017-02-24T01:19:41.355Z,247.50
2017-02-24T01:20:41.882Z,247.50
2017-02-24T01:21:42.418Z,247.50
2017-02-24T01:22:42.951Z,247.50
2017-02-24T01:23:43.478Z,247.50
2017-02-24T01:24:44.011Z,247.50
2017-02-24T01:25:44.692Z,247.50
2017-02-24T01:26:45.075Z,247.50
2017-02-24T01:27:45.607Z,247.50
2017-02-24T01:28:46.137Z,247.50
2017-02-24T01:29:46.817Z,247.50
2017-02-24T01:30:47.205Z,202.50
2017-02-24T01:31:47.738Z,247.50
2017-02-24T01:32:48.275Z,247.50
2017-02-24T01:33:48.956Z,270.00
2017-02-24T01:34:49.644Z,270.00
2017-02-24T01:35:49.880Z,270.00
2017-02-24T01:36:50.415Z,270.00
2017-02-24T01:37:50.956Z,270.00
2017-02-24T01:38:51.477Z,247.50
2017-02-24T01:39:52.006Z,247.50
2017-02-24T01:40:52.545Z,247.50
2017-02-24T01:41:53.075Z,247.50
2017-02-24T01:42:53.608Z,247.50
2017-02-24T01:43:54.138Z,247.50
2017-02-24T01:44:54.669Z,270.00
2017-02-24T01:45:55.200Z,247.50
2017-02-24T01:46:55.734Z,270.00
2017-02-24T01:47:56.260Z,270.00
2017-02-24T01:48:56.800Z,270.00
2017-02-24T01:49:57.354Z,270.00
2017-02-24T01:50:57.866Z,270.00
2017-02-24T01:51:58.393Z,270.00
2017-02-24T01:52:58.926Z,270.00
2017-02-24T01:53:59.474Z,270.00
2017-02-24T01:54:59.988Z,270.00
2017-02-24T01:56:00.519Z,270.00
2017-02-24T01:57:01.057Z,270.00
2017-02-24T01:58:01.585Z,292.50
2017-02-24T01:59:02.116Z,292.50
2017-02-24T02:00:02.649Z,270.00
2017-02-24T02:01:03.182Z,270.00
2017-02-24T02:02:03.712Z,270.00
2017-02-24T02:03:04.245Z,270.00
2017-02-24T02:04:04.776Z,292.50
2017-02-24T02:05:05.313Z,292.50
2017-02-24T02:06:05.842Z,270.00
2017-02-24T02:07:06.370Z,270.00
2017-02-24T02:08:06.901Z,270.00
2017-02-24T02:09:07.433Z,292.50
2017-02-24T02:10:07.973Z,292.50
2017-02-24T02:11:08.494Z,270.00
2017-02-24T02:12:09.030Z,292.50
2017-02-24T02:13:09.569Z,270.00
2017-02-24T02:14:10.116Z,270.00
2017-02-24T02:15:10.640Z,270.00
2017-02-24T02:16:11.180Z,270.00
2017-02-24T02:17:11.717Z,270.00
2017-02-24T02:18:12.244Z,292.50
2017-02-24T02:19:12.780Z,270.00
2017-02-24T02:20:13.456Z,247.50
2017-02-24T02:21:13.837Z,270.00
2017-02-24T02:22:14.364Z,270.00
2017-02-24T02:23:15.062Z,292.50
2017-02-24T02:24:15.428Z,292.50
2017-02-24T02:25:15.965Z,292.50
2017-02-24T02:26:16.492Z,270.00
2017-02-24T02:27:17.027Z,270.00
2017-02-24T02:28:17.560Z,247.50
2017-02-24T02:29:18.090Z,270.00
2017-02-24T02:30:18.621Z,270.00
2017-02-24T02:31:19.182Z,270.00
2017-02-24T02:32:19.689Z,270.00
2017-02-24T02:33:20.221Z,270.00
2017-02-24T02:34:20.751Z,270.00
2017-02-24T02:35:21.285Z,292.50
2017-02-24T02:36:21.819Z,292.50
2017-02-24T02:37:22.353Z,292.50
2017-02-24T02:38:22.884Z,270.00
2017-02-24T02:39:23.421Z,270.00
2017-02-24T02:40:23.952Z,270.00
2017-02-24T02:41:24.486Z,270.00
2017-02-24T02:42:25.017Z,270.00
2017-02-24T02:43:25.549Z,270.00
2017-02-24T02:44:26.081Z,270.00
2017-02-24T02:45:26.614Z,225.00
2017-02-24T02:46:27.297Z,270.00
2017-02-24T02:47:27.680Z,270.00
2017-02-24T02:48:28.212Z,292.50
2017-02-24T02:49:28.746Z,270.00
2017-02-24T02:50:29.272Z,270.00
2017-02-24T02:51:29.808Z,247.50
2017-02-24T02:52:30.496Z,270.00
2017-02-24T02:53:30.877Z,270.00
2017-02-24T02:54:31.412Z,292.50
2017-02-24T02:55:31.949Z,292.50
2017-02-24T02:56:32.630Z,270.00
2017-02-24T02:57:33.012Z,270.00
2017-02-24T02:58:33.553Z,292.50
2017-02-24T02:59:34.079Z,270.00
2017-02-24T03:00:34.611Z,247.50
2017-02-24T03:01:35.140Z,270.00
2017-02-24T03:02:35.673Z,270.00
2017-02-24T03:03:36.209Z,270.00
2017-02-24T03:04:36.736Z,270.00
2017-02-24T03:05:37.270Z,270.00
2017-02-24T03:06:37.953Z,270.00
2017-02-24T03:07:38.338Z,270.00
2017-02-24T03:08:38.866Z,292.50
2017-02-24T03:09:39.401Z,292.50
2017-02-24T03:10:40.225Z,292.50
2017-02-24T03:11:40.462Z,292.50
2017-02-24T03:12:40.995Z,270.00
2017-02-24T03:13:41.530Z,270.00
2017-02-24T03:14:42.057Z,270.00
2017-02-24T03:15:42.591Z,292.50
2017-02-24T03:16:43.119Z,270.00
2017-02-24T03:17:43.654Z,292.50
2017-02-24T03:18:44.376Z,292.50
2017-02-24T03:19:44.723Z,270.00
2017-02-24T03:20:45.250Z,270.00
2017-02-24T03:21:45.784Z,270.00
2017-02-24T03:22:46.312Z,270.00
2017-02-24T03:23:46.846Z,270.00
2017-02-24T03:24:47.383Z,270.00
2017-02-24T03:25:47.902Z,270.00
2017-02-24T03:26:48.431Z,270.00
2017-02-24T03:27:48.968Z,270.00
2017-02-24T03:28:49.511Z,270.00
2017-02-24T03:29:50.031Z,270.00
2017-02-24T03:30:50.559Z,270.00
2017-02-24T03:31:51.098Z,270.00
2017-02-24T03:32:51.635Z,270.00
2017-02-24T03:33:52.163Z,270.00
2017-02-24T03:34:52.699Z,292.50
2017-02-24T03:35:53.236Z,292.50
2017-02-24T03:36:53.914Z,270.00
2017-02-24T03:37:54.296Z,270.00
2017-02-24T03:38:54.824Z,292.50
2017-02-24T03:39:55.503Z,292.50
2017-02-24T03:40:55.884Z,270.00
2017-02-24T03:41:56.414Z,292.50
2017-02-24T03:42:56.948Z,292.50
2017-02-24T03:43:57.481Z,270.00
2017-02-24T03:44:58.013Z,270.00
2017-02-24T03:45:58.552Z,270.00
2017-02-24T03:46:59.069Z,270.00
2017-02-24T03:47:59.603Z,270.00
2017-02-24T03:49:00.143Z,270.00
2017-02-24T03:50:00.667Z,270.00
2017-02-24T03:51:01.209Z,270.00
2017-02-24T03:52:01.727Z,292.50
2017-02-24T03:53:02.259Z,292.50
2017-02-24T03:54:02.793Z,270.00
2017-02-24T03:55:03.320Z,270.00
2017-02-24T03:56:03.854Z,270.00
2017-02-24T03:57:04.381Z,270.00
2017-02-24T03:58:04.913Z,270.00
2017-02-24T03:59:05.447Z,270.00
2017-02-24T04:00:05.975Z,270.00
2017-02-24T04:01:06.503Z,292.50
2017-02-24T04:02:07.037Z,292.50
2017-02-24T04:03:07.569Z,270.00
2017-02-24T04:04:08.097Z,270.00
2017-02-24T04:05:08.635Z,270.00
2017-02-24T04:06:09.161Z,247.50
2017-02-24T04:07:09.690Z,292.50
2017-02-24T04:08:10.231Z,292.50
2017-02-24T04:09:10.755Z,292.50
2017-02-24T04:10:11.292Z,270.00
2017-02-24T04:11:11.829Z,270.00
2017-02-24T04:12:12.355Z,270.00
2017-02-24T04:13:12.886Z,270.00
2017-02-24T04:14:13.427Z,292.50
2017-02-24T04:15:13.963Z,292.50
2017-02-24T04:16:14.489Z,292.50
2017-02-24T04:17:15.031Z,270.00
2017-02-24T04:18:15.577Z,270.00
2017-02-24T04:19:16.095Z,270.00
2017-02-24T04:20:16.632Z,270.00
2017-02-24T04:21:17.172Z,270.00
2017-02-24T04:22:17.693Z,292.50
2017-02-24T04:23:18.223Z,292.50
2017-02-24T04:24:18.759Z,270.00
2017-02-24T04:25:19.289Z,270.00
2017-02-24T04:26:19.840Z,247.50
2017-02-24T04:27:20.344Z,270.00
2017-02-24T04:28:20.878Z,270.00
2017-02-24T04:29:21.403Z,270.00
2017-02-24T04:30:21.938Z,270.00
2017-02-24T04:31:22.461Z,247.50
2017-02-24T04:32:22.992Z,270.00
2017-02-24T04:33:23.677Z,270.00
2017-02-24T04:34:24.061Z,292.50
2017-02-24T04:35:24.591Z,292.50
2017-02-24T04:36:25.135Z,292.50
2017-02-24T04:37:25.659Z,225.00
2017-02-24T04:38:26.193Z,270.00
2017-02-24T04:39:26.726Z,270.00
2017-02-24T04:40:27.254Z,292.50
2017-02-24T04:41:27.784Z,292.50
2017-02-24T04:42:28.318Z,270.00
2017-02-24T04:43:28.848Z,270.00
2017-02-24T04:44:29.386Z,292.50
2017-02-24T04:45:29.914Z,292.50
2017-02-24T04:46:30.447Z,292.50
2017-02-24T04:47:30.978Z,270.00
2017-02-24T04:48:31.514Z,292.50
2017-02-24T04:49:32.044Z,270.00
2017-02-24T04:50:32.569Z,270.00
2017-02-24T04:51:33.109Z,270.00
2017-02-24T04:52:33.632Z,270.00
2017-02-24T04:53:34.177Z,292.50
2017-02-24T04:54:34.694Z,270.00
2017-02-24T04:55:35.378Z,247.50
2017-02-24T04:56:35.763Z,270.00
2017-02-24T04:57:36.445Z,270.00
2017-02-24T04:58:36.836Z,270.00
2017-02-24T04:59:37.380Z,270.00
2017-02-24T05:00:37.904Z,270.00
2017-02-24T05:01:38.436Z,270.00
2017-02-24T05:02:39.116Z,270.00
2017-02-24T05:03:39.501Z,270.00
2017-02-24T05:04:40.040Z,270.00
2017-02-24T05:05:40.572Z,270.00
2017-02-24T05:06:41.103Z,270.00
2017-02-24T05:07:41.639Z,270.00
2017-02-24T05:08:42.164Z,270.00
2017-02-24T05:09:42.691Z,270.00
2017-02-24T05:10:43.223Z,247.50
2017-02-24T05:11:43.763Z,292.50
2017-02-24T05:12:44.286Z,292.50
2017-02-24T05:13:44.817Z,247.50
2017-02-24T05:14:45.349Z,247.50
2017-02-24T05:15:45.879Z,270.00
2017-02-24T05:16:46.409Z,270.00
2017-02-24T05:17:46.943Z,292.50
2017-02-24T05:18:47.616Z,292.50
2017-02-24T05:19:48.005Z,292.50
2017-02-24T05:20:48.536Z,247.50
2017-02-24T05:21:49.070Z,270.00
2017-02-24T05:22:49.597Z,270.00
2017-02-24T05:23:50.126Z,270.00
2017-02-24T05:24:50.660Z,270.00
2017-02-24T05:25:51.341Z,270.00
2017-02-24T05:26:51.720Z,270.00
2017-02-24T05:27:52.402Z,270.00
2017-02-24T05:28:52.784Z,270.00
2017-02-24T05:29:53.311Z,270.00
2017-02-24T05:30:53.840Z,270.00
2017-02-24T05:31:54.370Z,270.00
2017-02-24T05:32:54.911Z,292.50
2017-02-24T05:33:55.447Z,270.00
2017-02-24T05:34:55.987Z,270.00
2017-02-24T05:35:56.525Z,292.50
2017-02-24T05:36:57.071Z,292.50
2017-02-24T05:37:57.606Z,247.50
2017-02-24T05:38:58.152Z,247.50
2017-02-24T05:39:58.695Z,247.50
2017-02-24T05:40:59.383Z,247.50
2017-02-24T05:41:59.773Z,270.00
2017-02-24T05:43:00.315Z,270.00
2017-02-24T05:44:00.996Z,270.00
2017-02-24T05:45:01.541Z,270.00
2017-02-24T05:46:01.946Z,247.50
2017-02-24T05:47:02.479Z,202.50
2017-02-24T05:48:03.163Z,292.50
2017-02-24T05:49:03.555Z,292.50
2017-02-24T05:50:04.091Z,270.00
2017-02-24T05:51:04.627Z,270.00
2017-02-24T05:52:05.167Z,270.00
2017-02-24T05:53:05.845Z,270.00
2017-02-24T05:54:06.235Z,292.50
2017-02-24T05:55:06.943Z,292.50
2017-02-24T05:56:07.311Z,247.50
2017-02-24T05:57:07.859Z,247.50
2017-02-24T05:58:08.389Z,247.50
2017-02-24T05:59:08.930Z,292.50
2017-02-24T06:00:09.467Z,270.00
2017-02-24T06:01:10.004Z,270.00
2017-02-24T06:02:10.555Z,270.00
2017-02-24T06:03:11.081Z,247.50
2017-02-24T06:04:11.610Z,270.00
2017-02-24T06:05:12.149Z,292.50
2017-02-24T06:06:12.678Z,247.50
2017-02-24T06:07:13.208Z,270.00
2017-02-24T06:08:13.738Z,270.00
2017-02-24T06:09:14.269Z,247.50
2017-02-24T06:10:14.799Z,225.00
2017-02-24T06:11:15.330Z,270.00
2017-02-24T06:12:15.868Z,270.00
2017-02-24T06:13:16.395Z,270.00
2017-02-24T06:14:16.925Z,270.00
2017-02-24T06:15:17.456Z,270.00
2017-02-24T06:16:18.001Z,270.00
2017-02-24T06:17:18.521Z,270.00
2017-02-24T06:18:19.055Z,292.50
2017-02-24T06:19:19.586Z,292.50
2017-02-24T06:20:20.119Z,270.00
2017-02-24T06:21:20.656Z,270.00
2017-02-24T06:22:21.192Z,270.00
2017-02-24T06:23:21.726Z,270.00
2017-02-24T06:24:22.254Z,225.00
2017-02-24T06:25:22.785Z,247.50
2017-02-24T06:26:23.314Z,292.50
2017-02-24T06:27:23.850Z,292.50
2017-02-24T06:28:24.380Z,292.50
2017-02-24T06:29:24.916Z,292.50
2017-02-24T06:30:25.446Z,270.00
2017-02-24T06:31:25.978Z,270.00
2017-02-24T06:32:26.509Z,270.00
2017-02-24T06:33:27.041Z,270.00
2017-02-24T06:34:27.580Z,270.00
2017-02-24T06:35:28.104Z,270.00
2017-02-24T06:36:28.632Z,270.00
2017-02-24T06:37:29.165Z,247.50
2017-02-24T06:38:29.849Z,270.00
2017-02-24T06:39:30.229Z,270.00
2017-02-24T06:40:30.770Z,292.50
2017-02-24T06:41:31.298Z,292.50
2017-02-24T06:42:31.831Z,270.00
2017-02-24T06:43:32.357Z,270.00
2017-02-24T06:44:32.890Z,270.00
2017-02-24T06:45:33.421Z,270.00
2017-02-24T06:46:33.952Z,270.00
2017-02-24T06:47:34.481Z,270.00
2017-02-24T06:48:35.015Z,270.00
2017-02-24T06:49:35.563Z,270.00
2017-02-24T06:50:36.122Z,270.00
2017-02-24T06:51:36.633Z,270.00
2017-02-24T06:52:37.171Z,292.50
2017-02-24T06:53:37.710Z,270.00
2017-02-24T06:54:38.258Z,270.00
2017-02-24T06:55:38.787Z,270.00
2017-02-24T06:56:39.322Z,270.00
2017-02-24T06:57:39.864Z,270.00
2017-02-24T06:58:40.397Z,270.00
2017-02-24T06:59:40.941Z,270.00
2017-02-24T07:00:41.470Z,270.00
2017-02-24T07:01:42.010Z,270.00
2017-02-24T07:02:42.697Z,270.00
2017-02-24T07:03:43.081Z,270.00
2017-02-24T07:04:43.613Z,270.00
2017-02-24T07:05:44.140Z,270.00
2017-02-24T07:06:44.687Z,270.00
2017-02-24T07:07:45.206Z,270.00
2017-02-24T07:08:45.746Z,270.00
2017-02-24T07:09:46.273Z,270.00
2017-02-24T07:10:46.802Z,270.00
2017-02-24T07:11:47.334Z,270.00
2017-02-24T07:12:47.868Z,270.00
2017-02-24T07:13:48.406Z,270.00
2017-02-24T07:14:49.088Z,270.00
2017-02-24T07:15:49.482Z,45.00
2017-02-24T07:16:50.022Z,0.00
2017-02-24T07:17:50.563Z,0.00
2017-02-24T07:18:51.110Z,0.00
2017-02-24T07:19:51.645Z,0.00
2017-02-24T07:20:52.189Z,0.00
2017-02-24T07:21:52.717Z,225.00
2017-02-24T07:22:53.242Z,270.00
2017-02-24T07:23:53.775Z,270.00
2017-02-24T07:24:54.500Z,270.00
2017-02-24T07:25:54.843Z,270.00
2017-02-24T07:26:55.381Z,292.50
2017-02-24T07:27:55.901Z,292.50
2017-02-24T07:28:56.429Z,270.00
2017-02-24T07:29:56.962Z,247.50
2017-02-24T07:30:57.502Z,270.00
2017-02-24T07:31:58.037Z,270.00
2017-02-24T07:32:58.563Z,270.00
2017-02-24T07:33:59.095Z,270.00
2017-02-24T07:34:59.628Z,270.00
2017-02-24T07:36:00.158Z,270.00
2017-02-24T07:37:00.694Z,292.50
2017-02-24T07:38:01.229Z,270.00
2017-02-24T07:39:01.753Z,292.50
2017-02-24T07:40:02.286Z,292.50
2017-02-24T07:41:02.971Z,247.50
2017-02-24T07:42:03.352Z,270.00
2017-02-24T07:43:03.887Z,270.00
2017-02-24T07:44:04.428Z,270.00
2017-02-24T07:45:04.957Z,292.50
2017-02-24T07:46:05.489Z,270.00
2017-02-24T07:47:06.021Z,270.00
2017-02-24T07:48:06.556Z,270.00
2017-02-24T07:49:07.087Z,270.00
2017-02-24T07:50:07.613Z,270.00
2017-02-24T07:51:08.151Z,270.00
2017-02-24T07:52:08.676Z,270.00
2017-02-24T07:53:09.213Z,270.00
2017-02-24T07:54:09.736Z,270.00
2017-02-24T07:55:10.434Z,270.00
2017-02-24T07:56:10.796Z,270.00
2017-02-24T07:57:11.329Z,270.00
2017-02-24T07:58:11.862Z,292.50
2017-02-24T07:59:12.393Z,270.00
2017-02-24T08:00:12.927Z,270.00
2017-02-24T08:01:13.458Z,270.00
2017-02-24T08:02:13.992Z,270.00
2017-02-24T08:03:14.530Z,270.00
2017-02-24T08:04:15.053Z,270.00
2017-02-24T08:05:15.579Z,270.00
2017-02-24T08:06:16.114Z,270.00
2017-02-24T08:07:16.645Z,270.00
2017-02-24T08:08:17.172Z,270.00
2017-02-24T08:09:17.855Z,270.00
2017-02-24T08:10:18.380Z,270.00
2017-02-24T08:11:18.775Z,270.00
2017-02-24T08:12:19.298Z,292.50
2017-02-24T08:13:19.976Z,270.00
2017-02-24T08:14:20.502Z,270.00
2017-02-24T08:15:20.895Z,270.00
2017-02-24T08:16:21.422Z,270.00
2017-02-24T08:17:21.954Z,270.00
2017-02-24T08:18:22.485Z,270.00
2017-02-24T08:19:23.023Z,270.00
2017-02-24T08:20:23.547Z,270.00
2017-02-24T08:21:24.078Z,270.00
2017-02-24T08:22:24.613Z,270.00
2017-02-24T08:23:25.150Z,270.00
2017-02-24T08:24:25.686Z,270.00
2017-02-24T08:25:26.368Z,270.00
2017-02-24T08:26:26.757Z,270.00
2017-02-24T08:27:27.285Z,247.50
2017-02-24T08:28:27.817Z,247.50
2017-02-24T08:29:28.347Z,270.00
2017-02-24T08:30:28.879Z,270.00
2017-02-24T08:31:29.409Z,270.00
2017-02-24T08:32:29.940Z,270.00
2017-02-24T08:33:30.471Z,270.00
2017-02-24T08:34:31.003Z,270.00
2017-02-24T08:35:31.533Z,270.00
2017-02-24T08:36:32.065Z,292.50
2017-02-24T08:37:32.592Z,292.50
2017-02-24T08:38:33.126Z,292.50
2017-02-24T08:39:33.811Z,292.50
2017-02-24T08:40:34.189Z,292.50
2017-02-24T08:41:34.714Z,270.00
2017-02-24T08:42:35.249Z,292.50
2017-02-24T08:43:36.073Z,292.50
2017-02-24T08:44:36.323Z,292.50
2017-02-24T08:45:36.855Z,292.50
2017-02-24T08:46:37.376Z,270.00
2017-02-24T08:47:37.912Z,270.00
2017-02-24T08:48:38.447Z,270.00
2017-02-24T08:49:38.971Z,270.00
2017-02-24T08:50:39.505Z,270.00
2017-02-24T08:51:40.038Z,270.00
2017-02-24T08:52:40.566Z,292.50
2017-02-24T08:53:41.093Z,292.50
2017-02-24T08:54:41.632Z,292.50
2017-02-24T08:55:42.154Z,270.00
2017-02-24T08:56:42.686Z,292.50
2017-02-24T08:57:43.227Z,270.00
2017-02-24T08:58:43.751Z,292.50
2017-02-24T08:59:44.283Z,292.50
2017-02-24T09:00:44.815Z,292.50
2017-02-24T09:01:45.344Z,292.50
2017-02-24T09:02:45.878Z,270.00
2017-02-24T09:03:46.415Z,270.00
2017-02-24T09:04:46.965Z,270.00
2017-02-24T09:05:47.495Z,270.00
2017-02-24T09:06:48.021Z,270.00
2017-02-24T09:07:48.550Z,292.50
2017-02-24T09:08:49.088Z,270.00
2017-02-24T09:09:49.621Z,292.50
2017-02-24T09:10:50.146Z,270.00
2017-02-24T09:11:50.688Z,270.00
2017-02-24T09:12:51.208Z,270.00
2017-02-24T09:13:51.743Z,270.00
2017-02-24T09:14:52.271Z,270.00
2017-02-24T09:15:52.799Z,292.50
2017-02-24T09:16:53.334Z,270.00
2017-02-24T09:17:53.867Z,292.50
2017-02-24T09:18:54.405Z,270.00
2017-02-24T09:19:54.930Z,270.00
2017-02-24T09:20:55.460Z,292.50
2017-02-24T09:21:55.988Z,292.50
2017-02-24T09:22:56.667Z,270.00
2017-02-24T09:23:57.055Z,270.00
2017-02-24T09:24:57.582Z,270.00
2017-02-24T09:25:58.110Z,292.50
2017-02-24T09:26:58.793Z,292.50
2017-02-24T09:27:59.327Z,292.50
2017-02-24T09:28:59.709Z,292.50
2017-02-24T09:30:00.243Z,270.00
2017-02-24T09:31:00.775Z,292.50
2017-02-24T09:32:01.308Z,292.50
2017-02-24T09:33:01.838Z,292.50
2017-02-24T09:34:02.518Z,292.50
2017-02-24T09:35:02.903Z,270.00
2017-02-24T09:36:03.424Z,270.00
2017-02-24T09:37:03.957Z,270.00
2017-02-24T09:38:04.491Z,270.00
2017-02-24T09:39:05.023Z,292.50
2017-02-24T09:40:05.554Z,292.50
2017-02-24T09:41:06.084Z,270.00
2017-02-24T09:42:06.618Z,292.50
2017-02-24T09:43:07.152Z,270.00
2017-02-24T09:44:07.683Z,292.50
2017-02-24T09:45:08.221Z,292.50
2017-02-24T09:46:08.755Z,292.50
2017-02-24T09:47:09.288Z,292.50
2017-02-24T09:48:09.822Z,270.00
2017-02-24T09:49:10.359Z,270.00
2017-02-24T09:50:10.895Z,270.00
2017-02-24T09:51:11.425Z,292.50
2017-02-24T09:52:11.954Z,292.50
2017-02-24T09:53:12.487Z,270.00
2017-02-24T09:54:13.015Z,270.00
2017-02-24T09:55:13.551Z,270.00
2017-02-24T09:56:14.081Z,270.00
2017-02-24T09:57:14.615Z,292.50
2017-02-24T09:58:15.148Z,292.50
2017-02-24T09:59:15.679Z,270.00
2017-02-24T10:00:16.212Z,247.50
2017-02-24T10:01:16.751Z,247.50
2017-02-24T10:02:17.273Z,270.00
2017-02-24T10:03:17.814Z,270.00
2017-02-24T10:04:18.485Z,270.00
2017-02-24T10:05:18.872Z,270.00
2017-02-24T10:06:19.412Z,270.00
2017-02-24T10:07:19.937Z,292.50
2017-02-24T10:08:20.470Z,292.50
2017-02-24T10:09:20.999Z,315.00
2017-02-24T10:10:21.538Z,292.50
2017-02-24T10:11:22.063Z,292.50
2017-02-24T10:12:22.592Z,292.50
2017-02-24T10:13:23.125Z,270.00
2017-02-24T10:14:23.652Z,292.50
2017-02-24T10:15:24.185Z,292.50
2017-02-24T10:16:24.710Z,292.50
2017-02-24T10:17:25.246Z,270.00
2017-02-24T10:18:25.778Z,270.00
2017-02-24T10:19:26.318Z,270.00
2017-02-24T10:20:26.840Z,292.50
2017-02-24T10:21:27.522Z,292.50
2017-02-24T10:22:27.915Z,270.00
2017-02-24T10:23:28.440Z,270.00
2017-02-24T10:24:28.985Z,292.50
2017-02-24T10:25:29.501Z,292.50
2017-02-24T10:26:30.040Z,292.50
2017-02-24T10:27:30.576Z,270.00
2017-02-24T10:28:31.120Z,292.50
2017-02-24T10:29:31.648Z,292.50
2017-02-24T10:30:32.176Z,292.50
2017-02-24T10:31:32.710Z,292.50
2017-02-24T10:32:33.237Z,292.50
2017-02-24T10:33:33.772Z,270.00
2017-02-24T10:34:34.303Z,270.00
2017-02-24T10:35:34.837Z,292.50
2017-02-24T10:36:35.366Z,292.50
2017-02-24T10:37:35.902Z,292.50
2017-02-24T10:38:36.434Z,292.50
2017-02-24T10:39:36.964Z,292.50
2017-02-24T10:40:37.497Z,292.50
2017-02-24T10:41:38.030Z,292.50
2017-02-24T10:42:38.709Z,270.00
2017-02-24T10:43:39.102Z,270.00
2017-02-24T10:44:39.623Z,270.00
2017-02-24T10:45:40.154Z,270.00
2017-02-24T10:46:40.684Z,270.00
2017-02-24T10:47:41.220Z,292.50
2017-02-24T10:48:41.745Z,270.00
2017-02-24T10:49:42.281Z,270.00
2017-02-24T10:50:42.810Z,292.50
2017-02-24T10:51:43.349Z,270.00
2017-02-24T10:52:43.884Z,270.00
2017-02-24T10:53:44.412Z,292.50
2017-02-24T10:54:44.946Z,270.00
2017-02-24T10:55:45.477Z,270.00
2017-02-24T10:56:46.017Z,270.00
2017-02-24T10:57:46.541Z,270.00
2017-02-24T10:58:47.074Z,292.50
2017-02-24T10:59:47.607Z,292.50
2017-02-24T11:00:48.138Z,292.50
2017-02-24T11:01:48.676Z,292.50
2017-02-24T11:02:49.204Z,292.50
2017-02-24T11:03:49.736Z,292.50
2017-02-24T11:04:50.419Z,292.50
2017-02-24T11:05:50.800Z,270.00
2017-02-24T11:06:51.345Z,270.00
2017-02-24T11:07:51.868Z,292.50
2017-02-24T11:08:52.407Z,270.00
2017-02-24T11:09:52.943Z,292.50
2017-02-24T11:10:53.467Z,292.50
2017-02-24T11:11:54.000Z,292.50
2017-02-24T11:12:54.702Z,270.00
2017-02-24T11:13:55.060Z,270.00
2017-02-24T11:14:55.601Z,270.00
2017-02-24T11:15:56.124Z,270.00
2017-02-24T11:16:56.657Z,247.50
2017-02-24T11:17:57.189Z,270.00
2017-02-24T11:18:57.711Z,270.00
2017-02-24T11:19:58.253Z,270.00
2017-02-24T11:20:58.782Z,270.00
2017-02-24T11:21:59.312Z,270.00
2017-02-24T11:22:59.840Z,270.00
2017-02-24T11:24:00.375Z,270.00
2017-02-24T11:25:00.912Z,270.00
2017-02-24T11:26:01.438Z,270.00
2017-02-24T11:27:01.970Z,270.00
2017-02-24T11:28:02.501Z,270.00
2017-02-24T11:29:03.039Z,270.00
2017-02-24T11:30:03.563Z,270.00
2017-02-24T11:31:04.102Z,292.50
2017-02-24T11:32:04.624Z,292.50
2017-02-24T11:33:05.160Z,292.50
2017-02-24T11:34:05.690Z,292.50
2017-02-24T11:35:06.223Z,292.50
2017-02-24T11:36:06.757Z,270.00
2017-02-24T11:37:07.283Z,270.00
2017-02-24T11:38:07.814Z,270.00
2017-02-24T11:39:08.346Z,270.00
2017-02-24T11:40:08.874Z,270.00
2017-02-24T11:41:09.407Z,292.50
2017-02-24T11:42:09.938Z,270.00
2017-02-24T11:43:10.468Z,292.50
2017-02-24T11:44:11.004Z,292.50
2017-02-24T11:45:11.683Z,292.50
2017-02-24T11:46:12.072Z,292.50
2017-02-24T11:47:12.603Z,292.50
2017-02-24T11:48:13.139Z,292.50
2017-02-24T11:49:13.674Z,292.50
2017-02-24T11:50:14.211Z,292.50
2017-02-24T11:51:14.742Z,270.00
2017-02-24T11:52:15.282Z,270.00
2017-02-24T11:53:15.827Z,270.00
2017-02-24T11:54:16.337Z,270.00
2017-02-24T11:55:16.867Z,270.00
2017-02-24T11:56:17.400Z,270.00
2017-02-24T11:57:17.937Z,270.00
2017-02-24T11:58:18.463Z,292.50
2017-02-24T11:59:19.011Z,292.50
2017-02-24T12:00:19.526Z,270.00
2017-02-24T12:01:20.056Z,270.00
2017-02-24T12:02:20.587Z,270.00
2017-02-24T12:03:21.116Z,292.50
2017-02-24T12:04:21.648Z,292.50
2017-02-24T12:05:22.188Z,270.00
2017-02-24T12:06:22.708Z,270.00
2017-02-24T12:07:23.240Z,292.50
2017-02-24T12:08:23.772Z,292.50
2017-02-24T12:09:24.298Z,270.00
2017-02-24T12:10:24.834Z,270.00
2017-02-24T12:11:25.362Z,292.50
2017-02-24T12:12:25.895Z,292.50
2017-02-24T12:13:26.429Z,292.50
2017-02-24T12:14:26.961Z,270.00
2017-02-24T12:15:27.490Z,270.00
2017-02-24T12:16:28.165Z,270.00
2017-02-24T12:17:28.548Z,270.00
2017-02-24T12:18:29.082Z,270.00
2017-02-24T12:19:29.613Z,270.00
2017-02-24T12:20:30.140Z,270.00
2017-02-24T12:21:30.675Z,270.00
2017-02-24T12:22:31.205Z,270.00
2017-02-24T12:23:31.738Z,270.00
2017-02-24T12:24:32.412Z,292.50
2017-02-24T12:25:32.798Z,292.50
2017-02-24T12:26:33.328Z,292.50
2017-02-24T12:27:33.858Z,292.50
2017-02-24T12:28:34.395Z,270.00
2017-02-24T12:29:34.928Z,292.50
2017-02-24T12:30:35.464Z,315.00
2017-02-24T12:31:36.003Z,292.50
2017-02-24T12:32:36.538Z,292.50
2017-02-24T12:33:37.067Z,292.50
2017-02-24T12:34:37.606Z,292.50
2017-02-24T12:35:38.142Z,292.50